Boulder, CO (80301)

10:38 PM MDT on August 20, 2014 (GMT -0600)
63rd St & Jay Rd | Change Station
CLOSE
Current Station
Personal Weather Station
Location: Boulder, CO
Elevation: 5202 ft
Nearby Weather Stations

Elev 5202 ft 40.06 °N, 105.21 °W | Updated 1 minute ago

Clear
Clear
68.6 °F
Feels Like 68.6 °F
N
1.0
Wind Variable Wind from ESE
Gusts 7.0 mph

Today
High -- | Low -- °F
--% Chance of Precip.
Yesterday
High -- | Low -- °F
Precip. -- in
6:17 AM 7:50 PM
Waning Crescent, 17% visible
Pressure 30.02 in
Visibility 10.0 miles
Clouds Clear
Dew Point 53 °F
Humidity 58%
Rainfall 0.01 in
Snow Depth 0 in , 0 in
UV 0 out of 12
Pollen 9.60 out of 12
Ozone Good
PM2.5 Good
Flu Activity Not available.
METAR KBDU 210435Z AUTO 19004KT 10SM CLR 21/11 A3002 RMK AO2

More Conditions Fewer Conditions

Pressure 30.02 in
Visibility 10.0 miles
Clouds Clear
Dew Point 53 °F
Humidity 58%
Rainfall 0.01 in
Snow Depth 0 in , 0 in
UV 0 out of 12
Pollen 9.60 out of 12
Ozone Good
PM2.5 Good
Flu Activity Not available.
METAR KBDU 210435Z AUTO 19004KT 10SM CLR 21/11 A3002 RMK AO2

More Conditions Fewer Conditions

Nowcast | as of 10:11 PM MDT on August 20, 2014

Scattered showers and isolated thunderstorms will be moving northeastward across the southern foothills and the urban corridor through midnight PM. Expect some lightning ...gusty winds and brief moderate rain with the storms.

×

10-Day Weather Forecast

Almanac

Astronomy

Aug. 20, 2014 Rise Set
Actual Time 6:17 AM MDT 7:50 PM MDT
Civil Twilight 5:48 AM MDT 8:19 PM MDT
Nautical Twilight 5:14 AM MDT 8:53 PM MDT
Astronomical Twilight 4:37 AM MDT 9:29 PM MDT
Moon 1:59 AM MDT (8/20) 4:37 PM MDT (8/20)
Length of Visible Light 14h 30m
Length of Day
13h 33m
Tomorrow will be 2m 23s shorter.
Waning Crescent, 17% of the Moon is Illuminated
Aug 21
Waning Crescent
Aug 25
New
Sep 2
First Quarter
Sep 8
Full
Sep 15
Last Quarter

Today's Extremes

State Highs State Lows

Community

WunderPhotos

Upload Photos

1,745,854 photos uploaded!

Nearby

Air Quality

  Air Quality AQ Index Pollutant
Yesterday Good
PM10
Yesterday Good
OZONE
Current Good
OZONE
Current Good
PM2.5
Wednesday Moderate
OZONE
Wednesday Good
PM2.5
Thursday Moderate
OZONE
Thursday Good
PM2.5

Snow Depth

Station Depth Elevation
Niwot 0 in 9910 ft
University Camp 0 in 10300 ft
Wild Basin 0 in 9560 ft
Lake Irene 0 in 10700 ft
Jones Pass 0 in 10400 ft

Earthquake Activity

City Distance Mag. Time & Date
No recent earthquake activity has been reported nearby.
Minimum magnitude displayed is 2.5.

Coastal Water Temperatures

Place Temperature
No Stations Reporting

Nearby Weather Stations